Time;durP1;ratioP1;P1;durP2;ratioP2;P2;SDS_P1;SDS_P2;PMS_P1;PMS_P2;Temp;Humidity;BMP_temperature;BMP_pressure;BME280_temperature;BME280_humidity;BME280_pressure;Samples;Min_cycle;Max_cycle;Signal;HPM_P1;HPM_P2
2023/05/22 00:02:04;;;;;;;42.73;24.13;;;15.80;99.90;;;;;;7312427;19;20192;-91
2023/05/22 00:04:30;;;;;;;47.07;26.30;;;15.40;99.90;;;;;;7293094;19;20188;-92
2023/05/22 00:06:56;;;;;;;52.13;26.93;;;15.20;99.90;;;;;;7295287;19;20185;-90
2023/05/22 00:09:25;;;;;;;48.13;28.30;;;15.10;99.90;;;;;;7293931;19;20188;-89
2023/05/22 00:11:51;;;;;;;60.23;29.53;;;15.00;99.90;;;;;;7291921;19;20197;-91
2023/05/22 00:14:17;;;;;;;57.03;30.33;;;14.90;99.90;;;;;;7289022;19;20188;-90
2023/05/22 00:16:43;;;;;;;57.07;31.77;;;15.00;99.90;;;;;;7289643;19;20217;-91
2023/05/22 00:19:15;;;;;;;66.73;33.77;;;15.00;99.90;;;;;;7289539;19;20235;-91
2023/05/22 00:21:42;;;;;;;59.70;32.13;;;15.10;99.90;;;;;;7292303;19;20188;-90
2023/05/22 00:24:08;;;;;;;60.93;33.10;;;15.00;99.90;;;;;;7290754;19;20191;-90
2023/05/22 00:26:34;;;;;;;65.07;34.57;;;15.00;99.90;;;;;;7311593;19;20196;-90
2023/05/22 00:29:00;;;;;;;61.70;33.60;;;15.20;99.90;;;;;;7286145;19;20644;-90
2023/05/22 00:31:26;;;;;;;57.43;34.20;;;15.20;99.90;;;;;;7287036;19;20227;-90
2023/05/22 00:33:51;;;;;;;52.17;33.50;;;15.20;99.90;;;;;;7287688;19;20188;-90
2023/05/22 00:36:17;;;;;;;59.53;34.30;;;15.20;99.90;;;;;;7290146;19;20193;-90
2023/05/22 00:38:43;;;;;;;54.40;31.83;;;15.20;99.90;;;;;;7292640;19;20181;-89
2023/05/22 00:41:09;;;;;;;57.00;32.20;;;15.40;99.90;;;;;;7294182;19;20634;-90
2023/05/22 00:43:38;;;;;;;49.97;32.20;;;15.40;99.90;;;;;;7315789;19;20266;-90
2023/05/22 00:46:06;;;;;;;60.23;32.27;;;15.50;99.90;;;;;;7294978;19;20229;-91
2023/05/22 00:48:33;;;;;;;59.43;30.07;;;15.40;99.90;;;;;;7294736;19;20643;-90
2023/05/22 00:50:59;;;;;;;58.70;30.90;;;15.40;99.90;;;;;;7292691;19;20187;-90
2023/05/22 00:53:28;;;;;;;54.83;31.03;;;15.50;99.90;;;;;;7293469;19;20186;-90
2023/05/22 00:55:54;;;;;;;53.27;31.13;;;15.30;99.90;;;;;;7294167;19;20196;-90
2023/05/22 00:58:20;;;;;;;54.20;31.70;;;15.30;99.90;;;;;;7293269;19;20301;-91
2023/05/22 01:00:46;;;;;;;57.37;29.17;;;15.40;99.90;;;;;;7295655;19;20192;-91
2023/05/22 01:03:13;;;;;;;55.83;31.90;;;15.40;99.90;;;;;;7293996;19;20184;-90
2023/05/22 01:05:40;;;;;;;55.00;29.90;;;15.50;99.90;;;;;;7293624;19;20733;-90
2023/05/22 01:08:07;;;;;;;52.83;31.27;;;15.50;99.90;;;;;;7313483;19;20179;-90
2023/05/22 01:10:36;;;;;;;54.10;30.50;;;15.50;99.90;;;;;;7315254;19;20177;-90
2023/05/22 01:13:28;;;;;;;57.03;31.87;;;15.60;99.90;;;;;;7295223;19;20215;-91
2023/05/22 01:16:08;;;;;;;54.47;31.70;;;15.60;99.90;;;;;;7189630;19;2004453;-90
2023/05/22 01:18:51;;;;;;;51.60;32.30;;;15.50;99.90;;;;;;7292929;19;20191;-90
2023/05/22 01:21:28;;;;;;;60.47;32.53;;;15.40;99.90;;;;;;7192968;19;2004445;-91
2023/05/22 01:24:16;;;;;;;51.20;31.93;;;15.40;99.90;;;;;;7292693;19;20216;-91
2023/05/22 01:27:06;;;;;;;56.13;32.03;;;15.50;99.90;;;;;;7191917;19;2004377;-91
2023/05/22 01:29:45;;;;;;;56.17;33.57;;;15.60;99.90;;;;;;7294486;19;20195;-89
2023/05/22 01:32:15;;;;;;;57.17;33.73;;;15.70;99.90;;;;;;7270450;19;20180;-91
2023/05/22 01:34:44;;;;;;;62.20;34.50;;;15.80;99.90;;;;;;7292684;19;20195;-91
2023/05/22 01:37:12;;;;;;;60.10;33.90;;;16.00;99.90;;;;;;7291535;19;20188;-91
2023/05/22 01:39:39;;;;;;;54.40;34.17;;;16.00;99.90;;;;;;7294685;19;20195;-91
2023/05/22 01:42:06;;;;;;;71.50;37.83;;;16.00;99.90;;;;;;7314835;19;20220;-92
2023/05/22 01:44:33;;;;;;;75.27;39.90;;;16.00;99.90;;;;;;7293265;19;20189;-92
2023/05/22 01:47:03;;;;;;;70.83;41.10;;;16.10;99.90;;;;;;7292442;19;20264;-92
2023/05/22 01:49:33;;;;;;;71.17;41.50;;;16.00;99.90;;;;;;7292862;19;20282;-91
2023/05/22 01:52:38;;;;;;;77.70;42.23;;;16.00;99.90;;;;;;7292518;19;20219;-92
2023/05/22 01:55:19;;;;;;;78.53;42.00;;;16.00;99.90;;;;;;7191099;19;2004369;-91
2023/05/22 01:58:29;;;;;;;80.63;44.30;;;16.00;99.90;;;;;;7189693;19;2004418;-91
2023/05/22 02:00:59;;;;;;;82.70;44.33;;;15.90;99.90;;;;;;7191537;19;2004440;-91
2023/05/22 02:03:30;;;;;;;81.33;43.97;;;16.00;99.90;;;;;;7293009;19;20566;-92
2023/05/22 02:06:00;;;;;;;85.63;44.30;;;16.00;99.90;;;;;;7292944;19;20193;-91
2023/05/22 02:08:27;;;;;;;79.43;43.07;;;15.90;99.90;;;;;;7293394;19;20194;-91
2023/05/22 02:10:58;;;;;;;85.43;45.50;;;15.80;99.90;;;;;;7290159;19;20193;-91
2023/05/22 02:13:24;;;;;;;88.33;46.07;;;15.60;99.90;;;;;;7293256;19;20664;-90
2023/05/22 02:15:51;;;;;;;93.07;46.80;;;15.50;99.90;;;;;;7293212;19;20225;-89
2023/05/22 02:18:17;;;;;;;92.33;46.20;;;15.60;99.90;;;;;;7291727;19;20189;-89
2023/05/22 02:20:45;;;;;;;91.53;46.83;;;15.70;99.90;;;;;;7295506;19;20196;-91
2023/05/22 02:23:11;;;;;;;96.63;48.47;;;15.70;99.90;;;;;;7296293;19;20192;-91
2023/05/22 02:25:37;;;;;;;105.93;49.23;;;15.60;99.90;;;;;;7309518;19;20203;-91
2023/05/22 02:28:02;;;;;;;105.10;48.63;;;15.70;99.90;;;;;;7314993;19;20658;-91
2023/05/22 02:30:28;;;;;;;100.47;48.93;;;15.70;99.90;;;;;;7293789;19;20216;-91
2023/05/22 02:32:57;;;;;;;100.70;48.73;;;15.70;99.90;;;;;;7292561;19;20189;-92
2023/05/22 02:35:23;;;;;;;108.37;51.07;;;15.70;99.90;;;;;;7293068;19;20272;-92
2023/05/22 02:37:50;;;;;;;105.20;48.07;;;15.70;99.90;;;;;;7292985;19;20196;-91
2023/05/22 02:40:17;;;;;;;102.53;47.33;;;15.80;99.90;;;;;;7292724;19;20195;-92
2023/05/22 02:42:43;;;;;;;105.37;50.17;;;15.90;99.90;;;;;;7292981;19;20191;-91
2023/05/22 02:45:09;;;;;;;110.03;50.80;;;15.90;99.90;;;;;;7292853;19;20186;-91
2023/05/22 02:47:35;;;;;;;109.57;48.93;;;15.80;99.90;;;;;;7314665;19;20195;-91
2023/05/22 02:50:06;;;;;;;107.23;50.60;;;15.80;99.90;;;;;;7292793;19;20184;-92
2023/05/22 02:52:34;;;;;;;116.23;50.17;;;15.80;99.90;;;;;;7292870;19;20192;-92
2023/05/22 02:55:00;;;;;;;111.77;50.30;;;15.80;99.90;;;;;;7291821;19;20192;-91
2023/05/22 02:57:26;;;;;;;109.10;50.53;;;15.80;99.90;;;;;;7290583;19;20201;-91
2023/05/22 02:59:52;;;;;;;108.23;50.07;;;15.80;99.90;;;;;;7289345;19;20587;-91
2023/05/22 03:02:19;;;;;;;98.13;48.87;;;15.90;99.90;;;;;;7291104;19;20188;-92
2023/05/22 03:04:45;;;;;;;111.67;50.10;;;15.90;99.90;;;;;;7290303;19;21118;-91
2023/05/22 03:07:11;;;;;;;108.17;51.17;;;15.80;99.90;;;;;;7291733;19;20219;-91
2023/05/22 03:09:37;;;;;;;110.07;49.33;;;15.80;99.90;;;;;;7301851;19;20219;-92
2023/05/22 03:12:04;;;;;;;115.27;49.03;;;15.90;99.90;;;;;;7313012;19;20189;-91
2023/05/22 03:14:30;;;;;;;115.37;50.13;;;15.70;99.90;;;;;;7290898;19;20185;-91
2023/05/22 03:16:57;;;;;;;117.83;49.53;;;15.60;99.90;;;;;;7291010;19;20189;-91
2023/05/22 03:19:23;;;;;;;128.53;51.03;;;15.70;99.90;;;;;;7291587;19;20218;-91
2023/05/22 03:21:49;;;;;;;128.53;52.30;;;15.70;99.90;;;;;;7293079;19;20199;-92
2023/05/22 03:24:15;;;;;;;127.80;50.97;;;15.70;99.90;;;;;;7290206;19;20231;-92
2023/05/22 03:26:42;;;;;;;127.93;50.83;;;15.70;99.90;;;;;;7290681;19;20613;-92
2023/05/22 03:29:13;;;;;;;139.70;52.90;;;15.70;99.90;;;;;;7290579;19;20184;-91
2023/05/22 03:31:40;;;;;;;130.00;50.13;;;15.70;99.90;;;;;;7291427;19;20192;-91
2023/05/22 03:34:09;;;;;;;145.13;53.87;;;15.70;99.90;;;;;;7288308;19;20197;-92
2023/05/22 03:36:36;;;;;;;142.23;51.47;;;15.70;99.90;;;;;;7307116;19;20180;-92
2023/05/22 03:39:03;;;;;;;141.20;51.27;;;15.60;99.90;;;;;;7303937;19;20191;-92
2023/05/22 03:41:32;;;;;;;138.93;51.90;;;15.60;99.90;;;;;;7290206;19;20177;-92
2023/05/22 03:43:58;;;;;;;149.50;53.50;;;15.60;99.90;;;;;;7289773;19;20205;-92
2023/05/22 03:46:25;;;;;;;135.53;51.37;;;15.60;99.90;;;;;;7290218;19;20188;-91
2023/05/22 03:48:52;;;;;;;153.23;54.20;;;15.60;99.90;;;;;;7290081;19;20180;-91
2023/05/22 03:51:17;;;;;;;150.93;54.43;;;15.60;99.90;;;;;;7290050;19;20192;-92
2023/05/22 03:53:43;;;;;;;152.77;52.97;;;15.70;99.90;;;;;;7290987;19;20217;-92
2023/05/22 03:56:09;;;;;;;148.27;53.23;;;15.80;99.90;;;;;;7287982;19;20187;-92
2023/05/22 03:58:35;;;;;;;165.63;55.27;;;15.70;99.90;;;;;;7309512;19;20181;-91
2023/05/22 04:01:01;;;;;;;158.77;54.17;;;15.70;99.90;;;;;;7290375;19;20191;-91
2023/05/22 04:03:27;;;;;;;165.47;57.70;;;15.70;99.90;;;;;;7288645;19;20197;-91
2023/05/22 04:05:53;;;;;;;167.77;55.43;;;15.70;99.90;;;;;;7290499;19;20189;-89
2023/05/22 04:08:19;;;;;;;161.53;55.57;;;15.70;99.90;;;;;;7292060;19;20199;-90
2023/05/22 04:10:45;;;;;;;157.13;55.53;;;15.70;99.90;;;;;;7291791;19;20199;-90
2023/05/22 04:13:12;;;;;;;161.97;55.57;;;15.70;99.90;;;;;;7293696;19;20185;-91
2023/05/22 04:15:44;;;;;;;162.17;56.53;;;15.80;99.90;;;;;;7293958;19;20272;-92
2023/05/22 04:18:12;;;;;;;155.87;53.57;;;15.80;99.90;;;;;;7294041;19;20173;-91
2023/05/22 04:20:39;;;;;;;156.43;55.20;;;15.80;99.90;;;;;;7295144;19;20191;-91
2023/05/22 04:23:06;;;;;;;150.37;54.17;;;15.80;99.90;;;;;;7316209;19;20177;-90
2023/05/22 04:25:33;;;;;;;150.50;54.17;;;15.70;99.90;;;;;;7295160;19;20204;-90
2023/05/22 04:28:02;;;;;;;150.70;54.80;;;15.70;99.90;;;;;;7294286;19;20188;-90
2023/05/22 04:30:32;;;;;;;148.77;54.97;;;15.70;99.90;;;;;;7293875;19;21069;-92
2023/05/22 04:32:59;;;;;;;147.40;54.73;;;15.70;99.90;;;;;;7294699;19;20248;-89
2023/05/22 04:35:28;;;;;;;149.87;53.53;;;15.80;99.90;;;;;;7295257;19;20529;-90
2023/05/22 04:37:55;;;;;;;154.13;55.27;;;15.70;99.90;;;;;;7295206;19;20193;-91
2023/05/22 04:40:21;;;;;;;170.67;60.87;;;15.70;99.90;;;;;;7295784;19;20188;-91
2023/05/22 04:42:47;;;;;;;169.13;60.13;;;15.70;99.90;;;;;;7294475;19;20300;-90
2023/05/22 04:45:13;;;;;;;166.20;61.23;;;15.50;99.90;;;;;;7293185;19;20180;-89
2023/05/22 04:47:40;;;;;;;162.20;59.27;;;15.50;99.90;;;;;;7292253;19;20192;-89
2023/05/22 04:50:07;;;;;;;155.93;58.77;;;15.60;99.90;;;;;;7312366;19;20188;-89
2023/05/22 04:52:33;;;;;;;157.53;60.57;;;15.70;99.90;;;;;;7314374;19;20200;-90
2023/05/22 04:54:59;;;;;;;154.27;57.63;;;15.70;99.90;;;;;;7294895;19;20625;-89
2023/05/22 04:57:26;;;;;;;151.90;59.33;;;15.90;99.90;;;;;;7293217;19;20205;-91
2023/05/22 04:59:53;;;;;;;156.07;61.27;;;15.90;99.90;;;;;;7292514;19;20212;-91
2023/05/22 05:02:19;;;;;;;156.10;59.27;;;16.00;99.90;;;;;;7293748;19;20599;-90
2023/05/22 05:04:45;;;;;;;150.27;57.00;;;16.10;99.90;;;;;;7291397;19;20205;-89
2023/05/22 05:07:12;;;;;;;147.13;55.17;;;16.10;99.90;;;;;;7292858;19;20189;-91
2023/05/22 05:09:38;;;;;;;138.83;51.80;;;16.20;99.90;;;;;;7298113;19;20221;-91
2023/05/22 05:12:05;;;;;;;132.27;51.13;;;16.10;99.90;;;;;;7315229;19;20309;-91
2023/05/22 05:14:31;;;;;;;133.40;52.10;;;16.10;99.90;;;;;;7292017;19;20308;-91
2023/05/22 05:16:57;;;;;;;134.07;52.40;;;16.10;99.90;;;;;;7293017;19;20265;-91
2023/05/22 05:19:23;;;;;;;138.83;53.50;;;16.20;99.90;;;;;;7290384;19;20189;-90
2023/05/22 05:21:49;;;;;;;137.17;53.10;;;16.20;99.90;;;;;;7292072;19;20216;-90
2023/05/22 05:24:18;;;;;;;143.13;54.97;;;16.20;99.90;;;;;;7297314;19;20317;-89
2023/05/22 05:26:45;;;;;;;137.60;53.80;;;16.20;99.90;;;;;;7291932;19;20184;-89
2023/05/22 05:29:11;;;;;;;134.30;53.40;;;16.00;99.90;;;;;;7292896;19;20238;-90
2023/05/22 05:31:44;;;;;;;138.70;54.00;;;15.80;99.90;;;;;;7305583;19;20188;-89
2023/05/22 05:34:30;;;;;;;134.20;51.03;;;15.70;99.90;;;;;;7291064;19;20196;-89
2023/05/22 05:37:01;;;;;;;133.13;52.43;;;15.90;99.90;;;;;;7290720;19;20193;-90
2023/05/22 05:39:28;;;;;;;139.77;53.20;;;15.90;99.90;;;;;;7290859;19;20200;-90
2023/05/22 05:41:55;;;;;;;138.90;55.00;;;16.00;99.90;;;;;;7289837;19;20600;-90
2023/05/22 05:44:21;;;;;;;143.70;56.50;;;16.10;99.90;;;;;;7289829;19;20193;-89
2023/05/22 05:46:47;;;;;;;135.90;54.07;;;16.20;99.90;;;;;;7290080;19;20679;-89
2023/05/22 05:49:16;;;;;;;120.73;48.70;;;16.20;99.90;;;;;;7290699;19;20239;-90
2023/05/22 05:51:42;;;;;;;113.17;49.97;;;16.20;99.90;;;;;;7290057;19;20204;-89
2023/05/22 05:54:09;;;;;;;114.20;48.47;;;16.30;99.90;;;;;;7291056;19;20189;-90
2023/05/22 05:56:36;;;;;;;115.47;49.13;;;16.40;99.90;;;;;;7311973;19;20709;-90
2023/05/22 05:59:03;;;;;;;115.33;49.43;;;16.40;99.90;;;;;;7290055;19;20668;-89
2023/05/22 06:01:40;;;;;;;109.30;49.10;;;16.40;99.90;;;;;;7280965;19;20184;-90
2023/05/22 06:04:12;;;;;;;109.83;48.87;;;16.30;99.90;;;;;;7280796;19;20288;-91
2023/05/22 06:06:38;;;;;;;108.40;49.50;;;16.30;99.90;;;;;;7293198;19;20533;-90
2023/05/22 06:09:14;;;;;;;116.73;50.00;;;16.30;99.90;;;;;;7289966;19;20185;-90
2023/05/22 06:12:03;;;;;;;118.20;50.50;;;16.50;99.90;;;;;;7290075;19;20194;-90
2023/05/22 06:14:29;;;;;;;114.30;51.30;;;16.50;99.90;;;;;;7289733;19;20199;-89
2023/05/22 06:16:55;;;;;;;114.93;52.53;;;16.60;99.90;;;;;;7288866;19;20200;-91
2023/05/22 06:19:21;;;;;;;106.57;49.87;;;16.70;99.90;;;;;;7288923;19;20189;-91
2023/05/22 06:21:47;;;;;;;119.30;51.03;;;16.60;99.90;;;;;;7289903;19;20185;-90
2023/05/22 06:24:13;;;;;;;107.90;48.93;;;16.50;99.90;;;;;;7288582;19;20648;-90
2023/05/22 06:26:39;;;;;;;93.87;47.77;;;16.60;99.90;;;;;;7288383;19;20190;-90
2023/05/22 06:29:05;;;;;;;92.80;47.00;;;16.70;99.90;;;;;;7311445;19;20188;-90
2023/05/22 06:31:37;;;;;;;82.47;44.50;;;16.70;99.90;;;;;;7289682;19;20191;-89
2023/05/22 06:34:04;;;;;;;93.93;45.50;;;16.50;99.90;;;;;;7288678;19;20210;-90
2023/05/22 06:36:33;;;;;;;84.00;43.33;;;16.60;99.90;;;;;;7288496;19;20200;-90
2023/05/22 06:39:00;;;;;;;84.53;42.83;;;16.70;99.90;;;;;;7288831;19;20200;-89
2023/05/22 06:41:46;;;;;;;83.30;42.00;;;16.80;99.90;;;;;;7187059;19;2004502;-90
2023/05/22 06:44:13;;;;;;;87.67;44.53;;;16.90;99.90;;;;;;7288902;19;20196;-90
2023/05/22 06:46:39;;;;;;;80.30;42.27;;;16.70;99.90;;;;;;7288232;19;20219;-90
2023/05/22 06:49:05;;;;;;;81.70;41.17;;;16.80;99.90;;;;;;7310548;19;20188;-90
2023/05/22 06:51:46;;;;;;;76.17;41.73;;;16.80;99.90;;;;;;7185128;19;2004443;-90
2023/05/22 06:54:14;;;;;;;65.20;39.33;;;17.00;99.90;;;;;;7290169;19;20294;-90
2023/05/22 06:56:44;;;;;;;69.87;40.03;;;16.70;99.90;;;;;;7288290;19;20547;-90
2023/05/22 06:59:14;;;;;;;73.60;41.23;;;16.50;99.90;;;;;;7288409;19;20205;-89
2023/05/22 07:01:52;;;;;;;72.73;41.83;;;16.40;99.90;;;;;;7289224;19;20199;-90
2023/05/22 07:04:27;;;;;;;74.07;42.43;;;16.60;99.90;;;;;;7288789;19;20195;-90
2023/05/22 07:06:57;;;;;;;77.77;41.23;;;16.80;99.90;;;;;;7288317;19;20295;-89
2023/05/22 07:09:23;;;;;;;71.67;41.13;;;16.90;99.90;;;;;;7288245;19;20197;-91
2023/05/22 07:11:49;;;;;;;71.37;38.70;;;17.20;99.90;;;;;;7287570;19;20212;-90
2023/05/22 07:14:16;;;;;;;74.00;38.93;;;17.00;99.90;;;;;;7287006;19;20666;-90
2023/05/22 07:16:43;;;;;;;70.07;38.43;;;17.10;99.90;;;;;;7288052;19;20238;-90
2023/05/22 07:19:10;;;;;;;71.93;39.67;;;17.00;99.90;;;;;;7287694;19;20188;-90
2023/05/22 07:21:37;;;;;;;78.20;42.17;;;17.20;99.90;;;;;;7310364;19;20180;-90
2023/05/22 07:24:07;;;;;;;75.93;41.10;;;17.40;99.90;;;;;;7288198;19;20204;-90
2023/05/22 07:26:35;;;;;;;84.00;42.23;;;17.40;99.90;;;;;;7287043;19;20382;-90
2023/05/22 07:29:06;;;;;;;79.37;42.47;;;17.50;99.90;;;;;;7287169;19;20197;-91
2023/05/22 07:31:33;;;;;;;80.83;44.10;;;17.20;99.90;;;;;;7285723;19;20720;-91
2023/05/22 07:34:00;;;;;;;79.93;41.87;;;17.40;99.90;;;;;;7286292;19;20252;-90
2023/05/22 07:36:28;;;;;;;84.40;43.47;;;17.50;99.90;;;;;;7287656;19;20199;-90
2023/05/22 07:38:54;;;;;;;70.77;40.43;;;17.30;99.90;;;;;;7288751;19;20176;-90
2023/05/22 07:41:21;;;;;;;70.53;40.00;;;17.40;99.90;;;;;;7292708;19;20181;-90
2023/05/22 07:43:49;;;;;;;67.40;39.53;;;17.50;99.90;;;;;;7286914;19;20184;-89
2023/05/22 07:46:19;;;;;;;69.07;39.03;;;17.80;99.90;;;;;;7286742;19;20212;-90
2023/05/22 07:48:54;;;;;;;66.27;38.70;;;18.00;99.90;;;;;;7288590;19;20184;-90
2023/05/22 07:51:20;;;;;;;66.77;39.17;;;18.20;99.90;;;;;;7287066;19;20191;-90
2023/05/22 07:53:49;;;;;;;63.27;36.80;;;18.50;99.90;;;;;;7287184;19;20188;-90
2023/05/22 07:56:16;;;;;;;59.63;36.37;;;18.60;99.90;;;;;;7286593;19;20180;-90
2023/05/22 07:58:46;;;;;;;55.83;35.30;;;18.60;99.90;;;;;;7285536;19;20184;-90
2023/05/22 08:01:14;;;;;;;63.87;38.37;;;18.80;99.90;;;;;;7287052;19;20636;-90
2023/05/22 08:03:40;;;;;;;62.47;37.03;;;18.70;99.90;;;;;;7285766;19;20180;-89
2023/05/22 08:06:06;;;;;;;58.67;37.57;;;18.60;99.90;;;;;;7308097;19;20182;-90
2023/05/22 08:08:32;;;;;;;59.33;35.43;;;18.70;99.90;;;;;;7286282;19;20235;-90
2023/05/22 08:10:58;;;;;;;62.57;36.87;;;18.90;99.90;;;;;;7285935;19;20178;-90
2023/05/22 08:13:24;;;;;;;57.37;35.20;;;19.00;99.90;;;;;;7285369;19;20181;-90
2023/05/22 08:15:50;;;;;;;62.27;37.93;;;18.70;99.90;;;;;;7285860;19;20177;-90
2023/05/22 08:18:16;;;;;;;62.80;37.43;;;18.60;99.90;;;;;;7286630;19;20269;-90
2023/05/22 08:20:42;;;;;;;63.73;36.80;;;18.60;99.90;;;;;;7286193;19;20185;-90
2023/05/22 08:23:08;;;;;;;64.00;36.67;;;18.50;99.90;;;;;;7296215;19;20203;-90
2023/05/22 08:25:34;;;;;;;66.17;36.10;;;18.50;99.90;;;;;;7305289;19;20180;-90
2023/05/22 08:28:00;;;;;;;55.47;35.03;;;18.70;99.90;;;;;;7285609;19;20181;-90
2023/05/22 08:30:25;;;;;;;58.53;34.90;;;18.90;99.90;;;;;;7285708;19;20190;-90
2023/05/22 08:32:51;;;;;;;57.10;32.87;;;18.90;99.90;;;;;;7285113;19;20189;-90
2023/05/22 08:35:17;;;;;;;64.70;34.07;;;18.80;99.90;;;;;;7286998;19;20669;-90
2023/05/22 08:37:43;;;;;;;58.30;36.10;;;18.90;99.90;;;;;;7286207;19;20183;-90
2023/05/22 08:40:13;;;;;;;55.63;33.27;;;18.80;99.90;;;;;;7289563;19;20177;-90
2023/05/22 08:42:40;;;;;;;54.07;34.73;;;18.70;99.90;;;;;;7286272;19;20217;-91
2023/05/22 08:45:06;;;;;;;61.60;36.10;;;18.90;99.90;;;;;;7313504;19;20203;-90
2023/05/22 08:47:35;;;;;;;67.73;38.13;;;18.90;99.90;;;;;;7286222;19;20200;-90
2023/05/22 08:50:02;;;;;;;67.47;37.00;;;18.80;99.90;;;;;;7285865;19;20197;-90
2023/05/22 08:52:47;;;;;;;65.50;36.77;;;18.80;99.90;;;;;;7285068;19;20693;-90
2023/05/22 08:55:13;;;;;;;62.53;36.57;;;18.70;99.90;;;;;;7183294;19;2004531;-91
2023/05/22 08:57:39;;;;;;;63.23;37.50;;;18.60;99.90;;;;;;7295019;19;20197;-90
2023/05/22 09:00:06;;;;;;;59.40;34.10;;;18.50;99.90;;;;;;7314215;19;20201;-90
2023/05/22 09:02:32;;;;;;;56.30;33.57;;;18.70;99.90;;;;;;7292133;19;20256;-90
2023/05/22 09:05:00;;;;;;;57.23;33.87;;;18.70;99.90;;;;;;7291281;19;20224;-90
2023/05/22 09:07:28;;;;;;;57.20;33.97;;;18.70;99.90;;;;;;7292106;19;20185;-90
2023/05/22 09:09:55;;;;;;;51.10;32.07;;;18.60;99.90;;;;;;7292656;19;20185;-90
2023/05/22 09:12:21;;;;;;;47.90;31.57;;;18.60;99.90;;;;;;7291552;19;20620;-90
2023/05/22 09:14:47;;;;;;;55.20;33.27;;;18.70;99.90;;;;;;7292260;19;20200;-90
2023/05/22 09:17:16;;;;;;;50.20;32.30;;;18.70;99.90;;;;;;7291279;19;20177;-91
2023/05/22 09:19:45;;;;;;;53.83;32.67;;;18.80;99.90;;;;;;7291279;19;20202;-91
2023/05/22 09:22:12;;;;;;;53.97;33.33;;;18.70;99.90;;;;;;7291997;19;20197;-90
2023/05/22 09:24:41;;;;;;;55.90;33.47;;;18.70;99.90;;;;;;7307231;19;20183;-91
2023/05/22 09:27:07;;;;;;;58.13;33.80;;;18.40;99.90;;;;;;7313917;19;20297;-90
2023/05/22 09:29:49;;;;;;;56.40;32.83;;;18.50;99.90;;;;;;7292848;19;20224;-90
2023/05/22 09:32:17;;;;;;;55.53;34.50;;;18.70;99.90;;;;;;7189396;19;2004586;-90
2023/05/22 09:34:43;;;;;;;55.73;33.17;;;18.90;99.90;;;;;;7291613;19;20285;-90
2023/05/22 09:37:11;;;;;;;57.93;33.07;;;19.10;99.90;;;;;;7291545;19;20193;-90
2023/05/22 09:39:47;;;;;;;53.00;31.23;;;19.00;99.90;;;;;;7313879;19;20676;-90
2023/05/22 09:42:16;;;;;;;52.40;32.47;;;19.30;99.90;;;;;;7189311;19;2004415;-90
2023/05/22 09:44:47;;;;;;;53.60;33.00;;;19.30;99.90;;;;;;7290141;19;20212;-90
2023/05/22 09:47:14;;;;;;;59.67;35.17;;;19.30;99.90;;;;;;7292009;19;20204;-91
2023/05/22 09:49:44;;;;;;;58.67;34.23;;;19.40;99.90;;;;;;7297837;19;20201;-90
2023/05/22 09:52:13;;;;;;;62.73;36.17;;;19.40;99.90;;;;;;7291539;19;20224;-89
2023/05/22 09:54:49;;;;;;;59.50;33.50;;;19.50;99.90;;;;;;7292728;19;20185;-90
2023/05/22 09:57:18;;;;;;;53.17;33.00;;;19.60;99.90;;;;;;7290011;19;20192;-90
2023/05/22 09:59:48;;;;;;;56.50;33.53;;;19.60;99.90;;;;;;7290419;19;20213;-91
2023/05/22 10:02:15;;;;;;;55.77;32.70;;;19.70;99.90;;;;;;7291245;19;20183;-90
2023/05/22 10:04:43;;;;;;;51.40;32.60;;;19.50;99.90;;;;;;7289341;19;20306;-90
2023/05/22 10:07:10;;;;;;;54.20;31.60;;;19.40;99.90;;;;;;7298701;19;20594;-90
2023/05/22 10:09:39;;;;;;;50.73;31.03;;;19.30;99.90;;;;;;7311997;19;20307;-90
2023/05/22 10:12:06;;;;;;;58.80;33.30;;;19.00;99.90;;;;;;7290145;19;20190;-90
2023/05/22 10:14:34;;;;;;;51.73;31.67;;;19.10;99.90;;;;;;7289489;19;20737;-90
2023/05/22 10:17:05;;;;;;;55.17;32.63;;;19.30;99.90;;;;;;7289532;19;20192;-90
2023/05/22 10:19:31;;;;;;;52.77;32.77;;;19.50;99.90;;;;;;7291862;19;20185;-90
2023/05/22 10:21:59;;;;;;;55.83;34.23;;;19.90;99.90;;;;;;7294669;19;20281;-90
2023/05/22 10:24:26;;;;;;;49.70;31.83;;;20.00;99.90;;;;;;7287329;19;20206;-90
2023/05/22 10:26:53;;;;;;;49.73;31.73;;;20.30;99.90;;;;;;7290276;19;20203;-91
2023/05/22 10:29:27;;;;;;;59.43;33.20;;;20.20;99.90;;;;;;7290845;19;20192;-90
2023/05/22 10:32:32;;;;;;;52.40;32.63;;;20.10;99.90;;;;;;7290141;19;20203;-90
2023/05/22 10:35:39;;;;;;;54.80;31.87;;;20.00;99.90;;;;;;7187362;19;2004326;-90
2023/05/22 10:38:37;;;;;;;55.97;31.80;;;19.70;99.90;;;;;;7186831;19;2004417;-90
2023/05/22 10:41:03;;;;;;;46.73;29.70;;;20.10;99.90;;;;;;7188151;19;2004543;-90
2023/05/22 10:43:32;;;;;;;50.20;32.47;;;20.00;99.90;;;;;;7288945;19;20187;-90
2023/05/22 10:46:02;;;;;;;47.50;30.67;;;20.00;99.90;;;;;;7288854;19;20217;-90
2023/05/22 10:48:35;;;;;;;46.83;29.73;;;20.20;99.90;;;;;;7289128;19;20607;-90
2023/05/22 10:51:01;;;;;;;46.60;30.13;;;20.40;99.90;;;;;;7288009;19;20202;-90
2023/05/22 10:53:31;;;;;;;48.53;30.47;;;20.50;99.90;;;;;;7300514;19;20789;-89
2023/05/22 10:56:01;;;;;;;47.33;30.70;;;20.20;99.90;;;;;;7291224;19;20194;-90
2023/05/22 10:58:31;;;;;;;48.60;31.07;;;20.40;99.90;;;;;;7287595;19;20528;-90
2023/05/22 11:01:15;;;;;;;52.33;31.73;;;20.00;99.90;;;;;;7290169;19;20248;-91
2023/05/22 11:04:00;;;;;;;48.93;30.50;;;20.00;99.90;;;;;;7266777;19;20191;-91
2023/05/22 11:06:44;;;;;;;52.77;31.20;;;20.10;99.90;;;;;;7288308;19;20248;-90
2023/05/22 11:09:37;;;;;;;52.37;30.90;;;20.30;99.90;;;;;;7269811;19;20549;-90
2023/05/22 11:12:23;;;;;;;50.67;32.67;;;20.20;99.90;;;;;;7285749;19;20186;-90
2023/05/22 11:14:55;;;;;;;50.70;31.67;;;20.20;99.90;;;;;;7186896;19;2004476;-91
2023/05/22 11:17:23;;;;;;;49.40;30.20;;;20.30;99.90;;;;;;7288166;19;20248;-91
2023/05/22 11:20:12;;;;;;;51.63;31.83;;;20.60;99.90;;;;;;7285688;19;20195;-90
2023/05/22 11:22:43;;;;;;;51.93;31.23;;;20.60;99.90;;;;;;7286248;19;20181;-90
2023/05/22 11:25:16;;;;;;;52.23;32.53;;;20.30;99.90;;;;;;7299292;19;20191;-90
2023/05/22 11:27:43;;;;;;;50.50;31.57;;;20.10;99.90;;;;;;7288393;19;20190;-90
2023/05/22 11:30:10;;;;;;;56.30;33.77;;;20.10;99.90;;;;;;7306773;19;20189;-91
2023/05/22 11:32:38;;;;;;;56.13;32.60;;;19.90;99.90;;;;;;7308867;19;20181;-91
2023/05/22 11:35:04;;;;;;;54.53;33.37;;;19.60;99.90;;;;;;7288813;19;20193;-91
2023/05/22 11:37:31;;;;;;;53.07;31.47;;;19.70;99.90;;;;;;7287600;19;20185;-91
2023/05/22 11:39:59;;;;;;;52.33;32.40;;;20.00;99.90;;;;;;7287390;19;20197;-90
2023/05/22 11:42:25;;;;;;;51.93;32.30;;;20.20;99.90;;;;;;7288569;19;20276;-90
2023/05/22 11:44:51;;;;;;;52.10;32.17;;;20.30;99.90;;;;;;7286349;19;20203;-90
2023/05/22 11:47:17;;;;;;;54.00;32.87;;;20.40;99.90;;;;;;7286894;19;20224;-90
2023/05/22 11:49:43;;;;;;;53.77;33.37;;;20.50;99.90;;;;;;7287182;19;20208;-90
2023/05/22 11:52:09;;;;;;;51.43;32.20;;;20.50;99.90;;;;;;7300520;19;20185;-90
2023/05/22 11:54:36;;;;;;;54.43;32.53;;;20.50;99.90;;;;;;7307609;19;20212;-90
2023/05/22 11:57:08;;;;;;;54.00;32.17;;;20.40;99.90;;;;;;7287435;19;20193;-90
2023/05/22 11:59:34;;;;;;;56.00;33.27;;;20.40;99.90;;;;;;7292797;19;20196;-90
2023/05/22 12:02:00;;;;;;;54.30;33.40;;;20.60;99.90;;;;;;7287192;19;20202;-90
2023/05/22 12:04:31;;;;;;;55.13;34.20;;;20.60;99.90;;;;;;7285857;19;20205;-90
2023/05/22 12:06:57;;;;;;;51.70;34.43;;;20.20;99.90;;;;;;7287213;19;20197;-90
2023/05/22 12:09:23;;;;;;;57.77;35.53;;;20.20;99.90;;;;;;7286364;19;20593;-90
2023/05/22 12:11:49;;;;;;;58.97;35.07;;;20.30;99.90;;;;;;7285766;19;20185;-90
2023/05/22 12:14:15;;;;;;;57.70;34.53;;;20.50;99.90;;;;;;7286739;19;20209;-90
2023/05/22 12:16:41;;;;;;;53.37;34.50;;;20.00;99.90;;;;;;7285626;19;20188;-90
2023/05/22 12:19:07;;;;;;;61.20;34.93;;;20.10;99.90;;;;;;7308085;19;20612;-91
2023/05/22 12:21:35;;;;;;;60.43;35.03;;;20.20;99.90;;;;;;7286995;19;20203;-90
2023/05/22 12:24:05;;;;;;;53.13;32.87;;;20.40;99.90;;;;;;7285565;19;20188;-90
2023/05/22 12:26:35;;;;;;;54.60;33.23;;;20.20;99.90;;;;;;7286442;19;20662;-91
2023/05/22 12:29:01;;;;;;;54.10;34.73;;;20.50;99.90;;;;;;7286071;19;20195;-90
2023/05/22 12:31:45;;;;;;;54.50;33.60;;;20.70;99.90;;;;;;7285202;19;20511;-90
2023/05/22 12:34:11;;;;;;;51.83;32.63;;;20.90;99.90;;;;;;7272941;19;20223;-90